Aérodrome :
LOGIN :

S'inscrire | Disclaimer

   EN    FR    IT 

 










Légende :    VFR   VFR Marginal   IFR   IFR Intensif   IFR Très Intensif
Visi : 
Plafond : 
>= 8 km
>= 3000ft
5 à 8 km
1000 à 3000 ft
1500m à 5 km
500 à 1000 ft
800 à 1500m
200 à 500 ft
< 800m
< 200 ft
Symboles :   Orages  Brouillard  Fortes neiges  Fortes précipitations  Vent > 20 kt
SIGMETs :   Divers  Orages  Givrage  Turbulence  Onde Orograph.  Cendres Volcan.







- Altitude de l'aérodrome : 538 ft
- Code IATA : TNF
- Voir les cartes d'approche


LFPN - Toussus Le Noble

DERNIER METAR :
  • 190330Z AUTO 12005KT 4300 BR FEW033 OVC054 00/00 Q1020

METARs EXPIRÉS :
  • 190300Z AUTO 12004KT 4200 BR BKN036 BKN060 00/00 Q1020
  • 190230Z AUTO 12004KT 4400 BR BKN007 OVC160 00/M00 Q1020
  • 190200Z AUTO 13003KT 5000 BR SCT007 OVC190 01/00 Q1020
  • 190130Z AUTO 12004KT 5000 BR NSC 01/00 Q1021
  • 190100Z AUTO 12004KT 5000 BR NSC 01/00 Q1021

Prévision TAF périmée.
ATIS : +33 1 39 56 54 70
Pas de NOTAMs connus pour ce terrain.



MET'MAP, la Météo Aéronautique d'un coup d'oeil ! - Copyright ORBIFLY Décembre 2007 - Disclaimer

ORBIFLY MET'MAP TEAM :

Programmation & Développement : Alexandra Zaïnal
Conception & Développement : Baudouin d'Aumeries
Co-Programmation & Développement : Marc-Olivier Méhu
Soutien technique & logistique : Manuel Goepfert

Contact : metmap@orbifly.com




SOURCES & CREDITS :

   NOAA